sensor_id;sensor_type;location;lat;lon;timestamp;temperature;humidity
41437;DHT22;27178;49.460;10.850;2022-11-15T00:01:22;10.80;77.60
41437;DHT22;27178;49.460;10.850;2022-11-15T00:03:52;10.80;77.80
41437;DHT22;27178;49.460;10.850;2022-11-15T00:06:21;10.70;77.90
41437;DHT22;27178;49.460;10.850;2022-11-15T00:08:50;10.70;78.10
41437;DHT22;27178;49.460;10.850;2022-11-15T00:11:18;10.70;78.10
41437;DHT22;27178;49.460;10.850;2022-11-15T00:13:46;10.70;78.20
41437;DHT22;27178;49.460;10.850;2022-11-15T00:16:15;10.60;78.30
41437;DHT22;27178;49.460;10.850;2022-11-15T00:18:43;10.60;78.40
41437;DHT22;27178;49.460;10.850;2022-11-15T00:21:18;10.60;78.50
41437;DHT22;27178;49.460;10.850;2022-11-15T00:23:46;10.60;78.70
41437;DHT22;27178;49.460;10.850;2022-11-15T00:26:15;10.60;78.80
41437;DHT22;27178;49.460;10.850;2022-11-15T00:28:43;10.60;78.90
41437;DHT22;27178;49.460;10.850;2022-11-15T00:31:13;10.60;79.00
41437;DHT22;27178;49.460;10.850;2022-11-15T00:33:43;10.60;79.10
41437;DHT22;27178;49.460;10.850;2022-11-15T00:36:12;10.60;79.20
41437;DHT22;27178;49.460;10.850;2022-11-15T00:38:42;10.60;79.10
41437;DHT22;27178;49.460;10.850;2022-11-15T00:41:10;10.60;79.10
41437;DHT22;27178;49.460;10.850;2022-11-15T00:43:38;10.70;79.10
41437;DHT22;27178;49.460;10.850;2022-11-15T00:46:10;10.70;79.20
41437;DHT22;27178;49.460;10.850;2022-11-15T00:48:38;10.70;79.10
41437;DHT22;27178;49.460;10.850;2022-11-15T00:51:07;10.60;79.10
41437;DHT22;27178;49.460;10.850;2022-11-15T00:53:35;10.70;79.10
41437;DHT22;27178;49.460;10.850;2022-11-15T00:56:05;10.70;79.10
41437;DHT22;27178;49.460;10.850;2022-11-15T00:58:34;10.70;79.10
41437;DHT22;27178;49.460;10.850;2022-11-15T01:01:07;10.60;78.90
41437;DHT22;27178;49.460;10.850;2022-11-15T01:03:36;10.60;78.90
41437;DHT22;27178;49.460;10.850;2022-11-15T01:06:06;10.60;78.80
41437;DHT22;27178;49.460;10.850;2022-11-15T01:08:35;10.60;78.80
41437;DHT22;27178;49.460;10.850;2022-11-15T01:11:07;10.50;78.60
41437;DHT22;27178;49.460;10.850;2022-11-15T01:13:38;10.50;78.40
41437;DHT22;27178;49.460;10.850;2022-11-15T01:16:08;10.50;78.40
41437;DHT22;27178;49.460;10.850;2022-11-15T01:18:37;10.40;78.50
41437;DHT22;27178;49.460;10.850;2022-11-15T01:21:07;10.40;78.60
41437;DHT22;27178;49.460;10.850;2022-11-15T01:23:37;10.30;78.60
41437;DHT22;27178;49.460;10.850;2022-11-15T01:26:09;10.30;78.70
41437;DHT22;27178;49.460;10.850;2022-11-15T01:28:39;10.30;78.80
41437;DHT22;27178;49.460;10.850;2022-11-15T01:31:12;10.20;78.80
41437;DHT22;27178;49.460;10.850;2022-11-15T01:33:41;10.20;78.90
41437;DHT22;27178;49.460;10.850;2022-11-15T01:36:12;10.20;79.00
41437;DHT22;27178;49.460;10.850;2022-11-15T01:38:41;10.20;79.10
41437;DHT22;27178;49.460;10.850;2022-11-15T01:41:16;10.20;79.10
41437;DHT22;27178;49.460;10.850;2022-11-15T01:43:48;10.20;79.50
41437;DHT22;27178;49.460;10.850;2022-11-15T01:46:29;10.20;79.50
41437;DHT22;27178;49.460;10.850;2022-11-15T01:49:01;10.20;79.80
41437;DHT22;27178;49.460;10.850;2022-11-15T01:51:32;10.20;79.70
41437;DHT22;27178;49.460;10.850;2022-11-15T01:54:05;10.20;79.80
41437;DHT22;27178;49.460;10.850;2022-11-15T01:56:41;10.20;79.90
41437;DHT22;27178;49.460;10.850;2022-11-15T01:59:12;10.20;80.00
41437;DHT22;27178;49.460;10.850;2022-11-15T02:01:40;10.20;79.80
41437;DHT22;27178;49.460;10.850;2022-11-15T02:04:14;10.20;79.80
41437;DHT22;27178;49.460;10.850;2022-11-15T02:06:44;10.20;79.90
41437;DHT22;27178;49.460;10.850;2022-11-15T02:09:14;10.20;79.90
41437;DHT22;27178;49.460;10.850;2022-11-15T02:11:44;10.20;80.00
41437;DHT22;27178;49.460;10.850;2022-11-15T02:14:16;10.10;80.00
41437;DHT22;27178;49.460;10.850;2022-11-15T02:16:54;10.20;80.00
41437;DHT22;27178;49.460;10.850;2022-11-15T02:19:47;10.20;80.10
41437;DHT22;27178;49.460;10.850;2022-11-15T02:22:33;10.20;80.10
41437;DHT22;27178;49.460;10.850;2022-11-15T02:25:16;10.20;80.00
41437;DHT22;27178;49.460;10.850;2022-11-15T02:28:06;10.20;79.70
41437;DHT22;27178;49.460;10.850;2022-11-15T02:30:42;10.10;79.70
41437;DHT22;27178;49.460;10.850;2022-11-15T02:33:23;10.10;79.50
41437;DHT22;27178;49.460;10.850;2022-11-15T02:35:58;10.10;79.60
41437;DHT22;27178;49.460;10.850;2022-11-15T02:38:34;10.10;79.50
41437;DHT22;27178;49.460;10.850;2022-11-15T02:41:10;10.10;79.50
41437;DHT22;27178;49.460;10.850;2022-11-15T02:43:45;10.00;79.50
41437;DHT22;27178;49.460;10.850;2022-11-15T02:46:33;10.00;79.70
41437;DHT22;27178;49.460;10.850;2022-11-15T02:49:21;10.00;79.70
41437;DHT22;27178;49.460;10.850;2022-11-15T02:51:52;10.00;79.60
41437;DHT22;27178;49.460;10.850;2022-11-15T02:54:23;10.00;79.70
41437;DHT22;27178;49.460;10.850;2022-11-15T02:56:54;9.90;79.70
41437;DHT22;27178;49.460;10.850;2022-11-15T03:00:01;9.90;79.70
41437;DHT22;27178;49.460;10.850;2022-11-15T03:02:45;9.90;79.80
41437;DHT22;27178;49.460;10.850;2022-11-15T03:05:20;9.90;79.70
41437;DHT22;27178;49.460;10.850;2022-11-15T03:07:56;9.90;79.70
41437;DHT22;27178;49.460;10.850;2022-11-15T03:10:35;9.90;79.70
41437;DHT22;27178;49.460;10.850;2022-11-15T03:13:13;9.80;79.60
41437;DHT22;27178;49.460;10.850;2022-11-15T03:15:50;9.80;79.50
41437;DHT22;27178;49.460;10.850;2022-11-15T03:18:26;9.80;79.40
41437;DHT22;27178;49.460;10.850;2022-11-15T03:20:58;9.70;79.30
41437;DHT22;27178;49.460;10.850;2022-11-15T03:23:29;9.70;79.30
41437;DHT22;27178;49.460;10.850;2022-11-15T03:26:00;9.70;79.50
41437;DHT22;27178;49.460;10.850;2022-11-15T03:28:33;9.60;80.00
41437;DHT22;27178;49.460;10.850;2022-11-15T03:31:04;9.70;80.40
41437;DHT22;27178;49.460;10.850;2022-11-15T03:33:57;9.60;80.50
41437;DHT22;27178;49.460;10.850;2022-11-15T03:36:27;9.60;80.60
41437;DHT22;27178;49.460;10.850;2022-11-15T03:38:59;9.70;80.60
41437;DHT22;27178;49.460;10.850;2022-11-15T03:41:34;9.70;80.60
41437;DHT22;27178;49.460;10.850;2022-11-15T03:44:10;9.70;81.50
41437;DHT22;27178;49.460;10.850;2022-11-15T03:46:45;9.70;80.40
41437;DHT22;27178;49.460;10.850;2022-11-15T03:49:21;9.60;80.20
41437;DHT22;27178;49.460;10.850;2022-11-15T03:51:51;9.60;80.20
41437;DHT22;27178;49.460;10.850;2022-11-15T03:54:20;9.60;80.00
41437;DHT22;27178;49.460;10.850;2022-11-15T03:56:48;9.60;80.00
41437;DHT22;27178;49.460;10.850;2022-11-15T03:59:16;9.60;80.00
41437;DHT22;27178;49.460;10.850;2022-11-15T04:01:45;9.60;80.10
41437;DHT22;27178;49.460;10.850;2022-11-15T04:04:14;9.60;80.20
41437;DHT22;27178;49.460;10.850;2022-11-15T04:06:43;9.50;80.20
41437;DHT22;27178;49.460;10.850;2022-11-15T04:09:12;9.50;80.50
41437;DHT22;27178;49.460;10.850;2022-11-15T04:11:40;9.50;80.60
41437;DHT22;27178;49.460;10.850;2022-11-15T04:14:08;9.50;80.60
41437;DHT22;27178;49.460;10.850;2022-11-15T04:16:37;9.50;80.80
41437;DHT22;27178;49.460;10.850;2022-11-15T04:19:09;9.50;80.80
41437;DHT22;27178;49.460;10.850;2022-11-15T04:21:57;9.50;80.80
41437;DHT22;27178;49.460;10.850;2022-11-15T04:24:42;9.50;80.80
41437;DHT22;27178;49.460;10.850;2022-11-15T04:27:10;9.50;80.70
41437;DHT22;27178;49.460;10.850;2022-11-15T04:29:39;9.50;80.90
41437;DHT22;27178;49.460;10.850;2022-11-15T04:32:08;9.50;81.00
41437;DHT22;27178;49.460;10.850;2022-11-15T04:34:36;9.50;80.90
41437;DHT22;27178;49.460;10.850;2022-11-15T04:37:06;9.50;80.80
41437;DHT22;27178;49.460;10.850;2022-11-15T04:39:40;9.50;80.80
41437;DHT22;27178;49.460;10.850;2022-11-15T04:42:09;9.50;80.80
41437;DHT22;27178;49.460;10.850;2022-11-15T04:44:37;9.50;81.00
41437;DHT22;27178;49.460;10.850;2022-11-15T04:47:05;9.50;81.10
41437;DHT22;27178;49.460;10.850;2022-11-15T04:49:34;9.50;81.00
41437;DHT22;27178;49.460;10.850;2022-11-15T04:52:02;9.50;80.80
41437;DHT22;27178;49.460;10.850;2022-11-15T04:54:31;9.50;80.80
41437;DHT22;27178;49.460;10.850;2022-11-15T04:57:00;9.50;80.80
41437;DHT22;27178;49.460;10.850;2022-11-15T04:59:28;9.50;80.60
41437;DHT22;27178;49.460;10.850;2022-11-15T05:01:57;9.50;80.60
41437;DHT22;27178;49.460;10.850;2022-11-15T05:04:26;9.50;80.70
41437;DHT22;27178;49.460;10.850;2022-11-15T05:06:54;9.50;80.80
41437;DHT22;27178;49.460;10.850;2022-11-15T05:09:22;9.50;80.80
41437;DHT22;27178;49.460;10.850;2022-11-15T05:11:51;9.50;80.80
41437;DHT22;27178;49.460;10.850;2022-11-15T05:14:19;9.50;80.90
41437;DHT22;27178;49.460;10.850;2022-11-15T05:16:48;9.50;80.90
41437;DHT22;27178;49.460;10.850;2022-11-15T05:19:16;9.40;80.80
41437;DHT22;27178;49.460;10.850;2022-11-15T05:21:44;9.50;80.90
41437;DHT22;27178;49.460;10.850;2022-11-15T05:24:14;9.40;81.00
41437;DHT22;27178;49.460;10.850;2022-11-15T05:26:42;9.50;81.20
41437;DHT22;27178;49.460;10.850;2022-11-15T05:29:12;9.50;81.30
41437;DHT22;27178;49.460;10.850;2022-11-15T05:31:41;9.50;81.30
41437;DHT22;27178;49.460;10.850;2022-11-15T05:34:10;9.50;81.00
41437;DHT22;27178;49.460;10.850;2022-11-15T05:36:41;9.50;80.90
41437;DHT22;27178;49.460;10.850;2022-11-15T05:39:11;9.50;80.80
41437;DHT22;27178;49.460;10.850;2022-11-15T05:41:42;9.50;80.60
41437;DHT22;27178;49.460;10.850;2022-11-15T05:44:15;9.50;80.40
41437;DHT22;27178;49.460;10.850;2022-11-15T05:46:46;9.50;80.40
41437;DHT22;27178;49.460;10.850;2022-11-15T05:49:17;9.40;80.30
41437;DHT22;27178;49.460;10.850;2022-11-15T05:51:48;9.40;80.30
41437;DHT22;27178;49.460;10.850;2022-11-15T05:54:17;9.40;80.20
41437;DHT22;27178;49.460;10.850;2022-11-15T05:56:48;9.40;80.20
41437;DHT22;27178;49.460;10.850;2022-11-15T05:59:18;9.30;80.00
41437;DHT22;27178;49.460;10.850;2022-11-15T06:01:48;9.30;79.70
41437;DHT22;27178;49.460;10.850;2022-11-15T06:04:16;9.20;79.50
41437;DHT22;27178;49.460;10.850;2022-11-15T06:06:44;9.20;79.50
41437;DHT22;27178;49.460;10.850;2022-11-15T06:09:13;9.20;79.60
41437;DHT22;27178;49.460;10.850;2022-11-15T06:11:41;9.10;79.70
41437;DHT22;27178;49.460;10.850;2022-11-15T06:14:09;9.10;79.90
41437;DHT22;27178;49.460;10.850;2022-11-15T06:16:39;9.00;80.00
41437;DHT22;27178;49.460;10.850;2022-11-15T06:19:07;9.00;80.20
41437;DHT22;27178;49.460;10.850;2022-11-15T06:21:36;9.00;80.50
41437;DHT22;27178;49.460;10.850;2022-11-15T06:24:05;8.90;80.70
41437;DHT22;27178;49.460;10.850;2022-11-15T06:26:33;9.00;81.00
41437;DHT22;27178;49.460;10.850;2022-11-15T06:29:03;9.00;81.10
41437;DHT22;27178;49.460;10.850;2022-11-15T06:31:32;8.90;81.10
41437;DHT22;27178;49.460;10.850;2022-11-15T06:34:02;9.00;81.20
41437;DHT22;27178;49.460;10.850;2022-11-15T06:36:30;8.90;80.80
41437;DHT22;27178;49.460;10.850;2022-11-15T06:38:59;8.90;80.40
41437;DHT22;27178;49.460;10.850;2022-11-15T06:41:28;8.90;80.20
41437;DHT22;27178;49.460;10.850;2022-11-15T06:43:56;8.90;80.10
41437;DHT22;27178;49.460;10.850;2022-11-15T06:46:25;8.90;80.10
41437;DHT22;27178;49.460;10.850;2022-11-15T06:48:54;8.80;80.20
41437;DHT22;27178;49.460;10.850;2022-11-15T06:51:24;8.80;80.40
41437;DHT22;27178;49.460;10.850;2022-11-15T06:53:52;8.80;80.60
41437;DHT22;27178;49.460;10.850;2022-11-15T06:56:20;8.70;80.90
41437;DHT22;27178;49.460;10.850;2022-11-15T06:58:49;8.70;81.10
41437;DHT22;27178;49.460;10.850;2022-11-15T07:01:17;8.70;81.10
41437;DHT22;27178;49.460;10.850;2022-11-15T07:03:45;8.70;81.10
41437;DHT22;27178;49.460;10.850;2022-11-15T07:06:14;8.70;81.10
41437;DHT22;27178;49.460;10.850;2022-11-15T07:08:44;8.70;81.10
41437;DHT22;27178;49.460;10.850;2022-11-15T07:11:12;8.70;81.10
41437;DHT22;27178;49.460;10.850;2022-11-15T07:13:41;8.70;81.10
41437;DHT22;27178;49.460;10.850;2022-11-15T07:16:10;8.70;81.10
41437;DHT22;27178;49.460;10.850;2022-11-15T07:18:40;8.70;81.20
41437;DHT22;27178;49.460;10.850;2022-11-15T07:21:10;8.70;81.30
41437;DHT22;27178;49.460;10.850;2022-11-15T07:23:40;8.70;81.40
41437;DHT22;27178;49.460;10.850;2022-11-15T07:26:10;8.70;81.60
41437;DHT22;27178;49.460;10.850;2022-11-15T07:28:38;8.80;81.80
41437;DHT22;27178;49.460;10.850;2022-11-15T07:31:08;8.80;81.90
41437;DHT22;27178;49.460;10.850;2022-11-15T07:33:36;8.80;82.10
41437;DHT22;27178;49.460;10.850;2022-11-15T07:36:06;8.80;82.10
41437;DHT22;27178;49.460;10.850;2022-11-15T07:38:35;8.90;82.10
41437;DHT22;27178;49.460;10.850;2022-11-15T07:41:10;8.90;82.10
41437;DHT22;27178;49.460;10.850;2022-11-15T07:43:38;8.90;81.90
41437;DHT22;27178;49.460;10.850;2022-11-15T07:46:07;8.90;81.90
41437;DHT22;27178;49.460;10.850;2022-11-15T07:48:37;9.00;82.10
41437;DHT22;27178;49.460;10.850;2022-11-15T07:51:11;9.00;82.10
41437;DHT22;27178;49.460;10.850;2022-11-15T07:53:41;9.00;82.10
41437;DHT22;27178;49.460;10.850;2022-11-15T07:56:11;9.00;82.10
41437;DHT22;27178;49.460;10.850;2022-11-15T07:58:39;9.00;82.20
41437;DHT22;27178;49.460;10.850;2022-11-15T08:01:09;9.00;82.10
41437;DHT22;27178;49.460;10.850;2022-11-15T08:03:38;9.00;82.30
41437;DHT22;27178;49.460;10.850;2022-11-15T08:06:06;9.10;82.10
41437;DHT22;27178;49.460;10.850;2022-11-15T08:08:35;9.10;82.00
41437;DHT22;27178;49.460;10.850;2022-11-15T08:11:03;9.10;82.00
41437;DHT22;27178;49.460;10.850;2022-11-15T08:13:33;9.10;82.00
41437;DHT22;27178;49.460;10.850;2022-11-15T08:16:02;9.10;82.00
41437;DHT22;27178;49.460;10.850;2022-11-15T08:18:32;9.10;81.90
41437;DHT22;27178;49.460;10.850;2022-11-15T08:21:01;9.10;81.90
41437;DHT22;27178;49.460;10.850;2022-11-15T08:23:30;9.10;82.10
41437;DHT22;27178;49.460;10.850;2022-11-15T08:26:00;9.20;82.10
41437;DHT22;27178;49.460;10.850;2022-11-15T08:28:29;9.20;82.10
41437;DHT22;27178;49.460;10.850;2022-11-15T08:31:00;9.20;82.10
41437;DHT22;27178;49.460;10.850;2022-11-15T08:33:28;9.20;82.20
41437;DHT22;27178;49.460;10.850;2022-11-15T08:35:57;9.20;82.30
41437;DHT22;27178;49.460;10.850;2022-11-15T08:38:26;9.20;82.40
41437;DHT22;27178;49.460;10.850;2022-11-15T08:41:01;9.30;82.60
41437;DHT22;27178;49.460;10.850;2022-11-15T08:43:30;9.30;82.70
41437;DHT22;27178;49.460;10.850;2022-11-15T08:46:00;9.30;82.80
41437;DHT22;27178;49.460;10.850;2022-11-15T08:48:29;9.40;83.00
41437;DHT22;27178;49.460;10.850;2022-11-15T08:50:58;9.40;83.00
41437;DHT22;27178;49.460;10.850;2022-11-15T08:53:26;9.40;83.00
41437;DHT22;27178;49.460;10.850;2022-11-15T08:55:55;9.50;83.10
41437;DHT22;27178;49.460;10.850;2022-11-15T08:58:24;9.50;83.10
41437;DHT22;27178;49.460;10.850;2022-11-15T09:00:52;9.60;83.20
41437;DHT22;27178;49.460;10.850;2022-11-15T09:03:22;9.70;83.30
41437;DHT22;27178;49.460;10.850;2022-11-15T09:05:54;9.70;83.30
41437;DHT22;27178;49.460;10.850;2022-11-15T09:08:23;9.80;83.20
41437;DHT22;27178;49.460;10.850;2022-11-15T09:11:11;9.80;83.20
41437;DHT22;27178;49.460;10.850;2022-11-15T09:13:41;9.90;83.30
41437;DHT22;27178;49.460;10.850;2022-11-15T09:16:09;10.00;83.20
41437;DHT22;27178;49.460;10.850;2022-11-15T09:18:40;10.00;83.40
41437;DHT22;27178;49.460;10.850;2022-11-15T09:21:09;10.10;83.20
41437;DHT22;27178;49.460;10.850;2022-11-15T09:23:38;10.10;83.00
41437;DHT22;27178;49.460;10.850;2022-11-15T09:26:06;10.20;82.90
41437;DHT22;27178;49.460;10.850;2022-11-15T09:28:36;10.30;82.60
41437;DHT22;27178;49.460;10.850;2022-11-15T09:31:05;10.40;82.70
41437;DHT22;27178;49.460;10.850;2022-11-15T09:33:34;10.40;82.60
41437;DHT22;27178;49.460;10.850;2022-11-15T09:36:06;10.50;82.30
41437;DHT22;27178;49.460;10.850;2022-11-15T09:38:35;10.60;82.20
41437;DHT22;27178;49.460;10.850;2022-11-15T09:41:18;10.60;81.90
41437;DHT22;27178;49.460;10.850;2022-11-15T09:43:57;10.70;81.70
41437;DHT22;27178;49.460;10.850;2022-11-15T09:46:38;10.80;81.70
41437;DHT22;27178;49.460;10.850;2022-11-15T09:49:14;10.80;81.60
41437;DHT22;27178;49.460;10.850;2022-11-15T09:51:45;10.90;81.50
41437;DHT22;27178;49.460;10.850;2022-11-15T09:54:23;10.90;81.40
41437;DHT22;27178;49.460;10.850;2022-11-15T09:57:16;11.00;81.30
41437;DHT22;27178;49.460;10.850;2022-11-15T09:59:56;11.10;81.30
41437;DHT22;27178;49.460;10.850;2022-11-15T10:03:11;11.10;81.10
41437;DHT22;27178;49.460;10.850;2022-11-15T10:05:42;11.20;80.90
41437;DHT22;27178;49.460;10.850;2022-11-15T10:08:27;11.30;80.90
41437;DHT22;27178;49.460;10.850;2022-11-15T10:10:58;11.30;80.60
41437;DHT22;27178;49.460;10.850;2022-11-15T10:13:48;11.40;80.70
41437;DHT22;27178;49.460;10.850;2022-11-15T10:16:35;11.40;80.60
41437;DHT22;27178;49.460;10.850;2022-11-15T10:19:13;11.50;80.50
41437;DHT22;27178;49.460;10.850;2022-11-15T10:21:54;11.60;80.50
41437;DHT22;27178;49.460;10.850;2022-11-15T10:24:27;11.60;80.30
41437;DHT22;27178;49.460;10.850;2022-11-15T10:26:56;11.70;80.30
41437;DHT22;27178;49.460;10.850;2022-11-15T10:29:25;11.70;80.30
41437;DHT22;27178;49.460;10.850;2022-11-15T10:31:53;11.80;80.20
41437;DHT22;27178;49.460;10.850;2022-11-15T10:34:22;11.80;80.10
41437;DHT22;27178;49.460;10.850;2022-11-15T10:36:56;11.90;80.10
41437;DHT22;27178;49.460;10.850;2022-11-15T10:39:26;11.90;80.00
41437;DHT22;27178;49.460;10.850;2022-11-15T10:41:55;12.00;80.00
41437;DHT22;27178;49.460;10.850;2022-11-15T10:44:26;12.00;79.90
41437;DHT22;27178;49.460;10.850;2022-11-15T10:47:06;12.10;79.90
41437;DHT22;27178;49.460;10.850;2022-11-15T10:49:59;12.10;79.70
41437;DHT22;27178;49.460;10.850;2022-11-15T10:52:30;12.20;79.50
41437;DHT22;27178;49.460;10.850;2022-11-15T10:55:04;12.20;79.60
41437;DHT22;27178;49.460;10.850;2022-11-15T10:57:37;12.30;79.50
41437;DHT22;27178;49.460;10.850;2022-11-15T11:00:25;12.40;79.50
41437;DHT22;27178;49.460;10.850;2022-11-15T11:02:58;12.40;79.40
41437;DHT22;27178;49.460;10.850;2022-11-15T11:05:29;12.50;79.40
41437;DHT22;27178;49.460;10.850;2022-11-15T11:08:21;12.50;79.40
41437;DHT22;27178;49.460;10.850;2022-11-15T11:10:55;12.60;79.20
41437;DHT22;27178;49.460;10.850;2022-11-15T11:13:30;12.70;79.20
41437;DHT22;27178;49.460;10.850;2022-11-15T11:16:21;12.70;79.20
41437;DHT22;27178;49.460;10.850;2022-11-15T11:19:02;12.80;79.10
41437;DHT22;27178;49.460;10.850;2022-11-15T11:21:42;12.90;79.10
41437;DHT22;27178;49.460;10.850;2022-11-15T11:24:18;12.90;78.90
41437;DHT22;27178;49.460;10.850;2022-11-15T11:27:04;13.00;78.90
41437;DHT22;27178;49.460;10.850;2022-11-15T11:29:46;13.10;78.70
41437;DHT22;27178;49.460;10.850;2022-11-15T11:32:34;13.10;78.70
41437;DHT22;27178;49.460;10.850;2022-11-15T11:35:11;13.20;78.70
41437;DHT22;27178;49.460;10.850;2022-11-15T11:37:46;13.30;78.90
41437;DHT22;27178;49.460;10.850;2022-11-15T11:40:24;13.40;78.60
41437;DHT22;27178;49.460;10.850;2022-11-15T11:43:01;13.50;78.40
41437;DHT22;27178;49.460;10.850;2022-11-15T11:45:52;13.60;78.40
41437;DHT22;27178;49.460;10.850;2022-11-15T11:48:39;13.60;77.90
41437;DHT22;27178;49.460;10.850;2022-11-15T11:51:16;13.70;78.00
41437;DHT22;27178;49.460;10.850;2022-11-15T11:53:50;13.80;78.10
41437;DHT22;27178;49.460;10.850;2022-11-15T11:56:25;13.90;78.20
41437;DHT22;27178;49.460;10.850;2022-11-15T11:58:59;14.00;78.20
41437;DHT22;27178;49.460;10.850;2022-11-15T12:01:32;14.20;77.90
41437;DHT22;27178;49.460;10.850;2022-11-15T12:04:05;14.30;77.60
41437;DHT22;27178;49.460;10.850;2022-11-15T12:06:42;14.40;77.60
41437;DHT22;27178;49.460;10.850;2022-11-15T12:09:16;14.50;76.90
41437;DHT22;27178;49.460;10.850;2022-11-15T12:11:51;14.50;76.60
41437;DHT22;27178;49.460;10.850;2022-11-15T12:14:32;14.60;76.30
41437;DHT22;27178;49.460;10.850;2022-11-15T12:17:02;14.60;76.00
41437;DHT22;27178;49.460;10.850;2022-11-15T12:19:31;14.70;76.10
41437;DHT22;27178;49.460;10.850;2022-11-15T12:22:02;14.70;76.00
41437;DHT22;27178;49.460;10.850;2022-11-15T12:24:37;14.70;75.80
41437;DHT22;27178;49.460;10.850;2022-11-15T12:27:15;14.80;75.60
41437;DHT22;27178;49.460;10.850;2022-11-15T12:29:56;14.80;75.40
41437;DHT22;27178;49.460;10.850;2022-11-15T12:32:29;14.80;75.20
41437;DHT22;27178;49.460;10.850;2022-11-15T12:35:01;14.70;75.10
41437;DHT22;27178;49.460;10.850;2022-11-15T12:37:46;14.80;75.20
41437;DHT22;27178;49.460;10.850;2022-11-15T12:40:29;14.70;75.10
41437;DHT22;27178;49.460;10.850;2022-11-15T12:45:54;14.70;75.10
41437;DHT22;27178;49.460;10.850;2022-11-15T12:48:47;14.70;75.00
41437;DHT22;27178;49.460;10.850;2022-11-15T12:51:18;14.70;75.00
41437;DHT22;27178;49.460;10.850;2022-11-15T12:53:47;14.70;75.30
41437;DHT22;27178;49.460;10.850;2022-11-15T12:56:23;14.60;75.30
41437;DHT22;27178;49.460;10.850;2022-11-15T12:58:54;14.60;75.20
41437;DHT22;27178;49.460;10.850;2022-11-15T13:01:59;14.60;75.40
41437;DHT22;27178;49.460;10.850;2022-11-15T13:04:29;14.60;75.20
41437;DHT22;27178;49.460;10.850;2022-11-15T13:07:00;14.60;75.60
41437;DHT22;27178;49.460;10.850;2022-11-15T13:09:52;14.60;75.60
41437;DHT22;27178;49.460;10.850;2022-11-15T13:12:54;14.60;75.60
41437;DHT22;27178;49.460;10.850;2022-11-15T13:15:38;14.60;75.80
41437;DHT22;27178;49.460;10.850;2022-11-15T13:18:34;14.60;75.80
41437;DHT22;27178;49.460;10.850;2022-11-15T13:21:05;14.60;75.90
41437;DHT22;27178;49.460;10.850;2022-11-15T13:23:55;14.60;76.00
41437;DHT22;27178;49.460;10.850;2022-11-15T13:26:24;14.60;76.20
41437;DHT22;27178;49.460;10.850;2022-11-15T13:28:53;14.60;76.30
41437;DHT22;27178;49.460;10.850;2022-11-15T13:31:29;14.70;76.30
41437;DHT22;27178;49.460;10.850;2022-11-15T13:34:02;14.70;76.30
41437;DHT22;27178;49.460;10.850;2022-11-15T13:36:51;14.70;76.50
41437;DHT22;27178;49.460;10.850;2022-11-15T13:39:28;14.80;76.50
41437;DHT22;27178;49.460;10.850;2022-11-15T13:41:57;14.90;76.40
41437;DHT22;27178;49.460;10.850;2022-11-15T13:44:27;15.00;76.60
41437;DHT22;27178;49.460;10.850;2022-11-15T13:47:04;15.10;76.50
41437;DHT22;27178;49.460;10.850;2022-11-15T13:49:34;15.30;76.10
41437;DHT22;27178;49.460;10.850;2022-11-15T13:52:06;15.40;75.80
41437;DHT22;27178;49.460;10.850;2022-11-15T13:54:37;15.50;75.50
41437;DHT22;27178;49.460;10.850;2022-11-15T13:57:10;15.70;75.20
41437;DHT22;27178;49.460;10.850;2022-11-15T13:59:45;15.80;74.80
41437;DHT22;27178;49.460;10.850;2022-11-15T14:02:17;15.90;74.60
41437;DHT22;27178;49.460;10.850;2022-11-15T14:04:50;16.00;74.50
41437;DHT22;27178;49.460;10.850;2022-11-15T14:07:20;16.20;74.30
41437;DHT22;27178;49.460;10.850;2022-11-15T14:09:49;16.40;74.10
41437;DHT22;27178;49.460;10.850;2022-11-15T14:12:30;16.50;73.50
41437;DHT22;27178;49.460;10.850;2022-11-15T14:15:00;16.60;72.40
41437;DHT22;27178;49.460;10.850;2022-11-15T14:17:37;16.70;72.20
41437;DHT22;27178;49.460;10.850;2022-11-15T14:20:32;16.70;71.40
41437;DHT22;27178;49.460;10.850;2022-11-15T14:23:02;16.70;71.10
41437;DHT22;27178;49.460;10.850;2022-11-15T14:25:31;16.70;71.30
41437;DHT22;27178;49.460;10.850;2022-11-15T14:28:29;16.60;71.20
41437;DHT22;27178;49.460;10.850;2022-11-15T14:30:59;16.60;70.60
41437;DHT22;27178;49.460;10.850;2022-11-15T14:33:31;16.60;71.20
41437;DHT22;27178;49.460;10.850;2022-11-15T14:36:05;16.50;71.20
41437;DHT22;27178;49.460;10.850;2022-11-15T14:38:34;16.40;71.10
41437;DHT22;27178;49.460;10.850;2022-11-15T14:41:02;16.40;71.30
41437;DHT22;27178;49.460;10.850;2022-11-15T14:43:30;16.30;72.30
41437;DHT22;27178;49.460;10.850;2022-11-15T14:45:59;16.20;71.50
41437;DHT22;27178;49.460;10.850;2022-11-15T14:48:27;16.20;71.60
41437;DHT22;27178;49.460;10.850;2022-11-15T14:50:56;16.10;71.50
41437;DHT22;27178;49.460;10.850;2022-11-15T14:53:26;16.00;71.70
41437;DHT22;27178;49.460;10.850;2022-11-15T14:55:54;16.00;71.80
41437;DHT22;27178;49.460;10.850;2022-11-15T14:58:22;15.90;71.90
41437;DHT22;27178;49.460;10.850;2022-11-15T15:00:51;15.90;72.00
41437;DHT22;27178;49.460;10.850;2022-11-15T15:03:19;15.80;72.00
41437;DHT22;27178;49.460;10.850;2022-11-15T15:05:48;15.70;72.00
41437;DHT22;27178;49.460;10.850;2022-11-15T15:08:16;15.70;72.00
41437;DHT22;27178;49.460;10.850;2022-11-15T15:10:46;15.60;72.00
41437;DHT22;27178;49.460;10.850;2022-11-15T15:13:17;15.60;71.90
41437;DHT22;27178;49.460;10.850;2022-11-15T15:15:47;15.50;71.90
41437;DHT22;27178;49.460;10.850;2022-11-15T15:18:16;15.40;71.90
41437;DHT22;27178;49.460;10.850;2022-11-15T15:20:56;15.40;72.00
41437;DHT22;27178;49.460;10.850;2022-11-15T15:23:27;15.30;72.00
41437;DHT22;27178;49.460;10.850;2022-11-15T15:26:02;15.20;71.90
41437;DHT22;27178;49.460;10.850;2022-11-15T15:28:36;15.20;72.00
41437;DHT22;27178;49.460;10.850;2022-11-15T15:31:07;15.10;72.00
41437;DHT22;27178;49.460;10.850;2022-11-15T15:33:35;15.00;72.10
41437;DHT22;27178;49.460;10.850;2022-11-15T15:36:04;15.00;72.10
41437;DHT22;27178;49.460;10.850;2022-11-15T15:38:32;14.90;72.10
41437;DHT22;27178;49.460;10.850;2022-11-15T15:41:02;14.80;71.90
41437;DHT22;27178;49.460;10.850;2022-11-15T15:43:30;14.80;71.90
41437;DHT22;27178;49.460;10.850;2022-11-15T15:46:02;14.70;72.10
41437;DHT22;27178;49.460;10.850;2022-11-15T15:48:30;14.70;72.60
41437;DHT22;27178;49.460;10.850;2022-11-15T15:51:00;14.60;72.30
41437;DHT22;27178;49.460;10.850;2022-11-15T15:53:39;14.60;72.60
41437;DHT22;27178;49.460;10.850;2022-11-15T15:56:09;14.60;72.60
41437;DHT22;27178;49.460;10.850;2022-11-15T15:58:38;14.50;72.60
41437;DHT22;27178;49.460;10.850;2022-11-15T16:01:06;14.50;72.80